sensor_id;sensor_type;location;lat;lon;timestamp;temperature;humidity
33837;DHT22;20140;49.356;8.812;2022-10-31T00:00:52;9.90;99.90
33837;DHT22;20140;49.356;8.812;2022-10-31T00:03:18;9.90;99.90
33837;DHT22;20140;49.356;8.812;2022-10-31T00:05:45;10.00;99.90
33837;DHT22;20140;49.356;8.812;2022-10-31T00:08:11;9.90;99.90
33837;DHT22;20140;49.356;8.812;2022-10-31T00:10:40;9.90;99.90
33837;DHT22;20140;49.356;8.812;2022-10-31T00:13:07;9.80;99.90
33837;DHT22;20140;49.356;8.812;2022-10-31T00:15:34;9.70;99.90
33837;DHT22;20140;49.356;8.812;2022-10-31T00:18:00;9.70;99.90
33837;DHT22;20140;49.356;8.812;2022-10-31T00:20:26;9.80;99.90
33837;DHT22;20140;49.356;8.812;2022-10-31T00:22:52;9.80;99.90
33837;DHT22;20140;49.356;8.812;2022-10-31T00:25:17;9.60;99.90
33837;DHT22;20140;49.356;8.812;2022-10-31T00:27:42;9.50;99.90
33837;DHT22;20140;49.356;8.812;2022-10-31T00:30:08;9.50;99.90
33837;DHT22;20140;49.356;8.812;2022-10-31T00:32:34;9.40;99.90
33837;DHT22;20140;49.356;8.812;2022-10-31T00:34:59;9.50;99.90
33837;DHT22;20140;49.356;8.812;2022-10-31T00:37:25;9.50;99.90
33837;DHT22;20140;49.356;8.812;2022-10-31T00:39:51;9.50;99.90
33837;DHT22;20140;49.356;8.812;2022-10-31T00:42:17;9.50;99.90
33837;DHT22;20140;49.356;8.812;2022-10-31T00:44:42;9.60;99.90
33837;DHT22;20140;49.356;8.812;2022-10-31T00:47:08;9.70;99.90
33837;DHT22;20140;49.356;8.812;2022-10-31T00:49:33;9.70;99.90
33837;DHT22;20140;49.356;8.812;2022-10-31T00:51:59;9.70;99.90
33837;DHT22;20140;49.356;8.812;2022-10-31T00:54:24;9.60;99.90
33837;DHT22;20140;49.356;8.812;2022-10-31T00:56:50;9.50;99.90
33837;DHT22;20140;49.356;8.812;2022-10-31T00:59:15;9.50;99.90
33837;DHT22;20140;49.356;8.812;2022-10-31T01:01:41;9.50;99.90
33837;DHT22;20140;49.356;8.812;2022-10-31T01:04:06;9.40;99.90
33837;DHT22;20140;49.356;8.812;2022-10-31T01:06:32;9.50;99.90
33837;DHT22;20140;49.356;8.812;2022-10-31T01:08:57;9.60;99.90
33837;DHT22;20140;49.356;8.812;2022-10-31T01:11:23;9.50;99.90
33837;DHT22;20140;49.356;8.812;2022-10-31T01:13:52;9.60;99.90
33837;DHT22;20140;49.356;8.812;2022-10-31T01:16:20;9.70;99.90
33837;DHT22;20140;49.356;8.812;2022-10-31T01:18:46;9.50;99.90
33837;DHT22;20140;49.356;8.812;2022-10-31T01:21:18;9.40;99.90
33837;DHT22;20140;49.356;8.812;2022-10-31T01:23:43;9.30;99.90
33837;DHT22;20140;49.356;8.812;2022-10-31T01:26:17;9.20;99.90
33837;DHT22;20140;49.356;8.812;2022-10-31T01:28:46;9.20;99.90
33837;DHT22;20140;49.356;8.812;2022-10-31T01:31:12;9.20;99.90
33837;DHT22;20140;49.356;8.812;2022-10-31T01:33:38;9.10;99.90
33837;DHT22;20140;49.356;8.812;2022-10-31T01:36:25;9.10;99.90
33837;DHT22;20140;49.356;8.812;2022-10-31T01:38:53;9.10;99.90
33837;DHT22;20140;49.356;8.812;2022-10-31T01:41:22;9.10;99.90
33837;DHT22;20140;49.356;8.812;2022-10-31T01:46:20;9.10;99.90
33837;DHT22;20140;49.356;8.812;2022-10-31T01:48:47;9.10;99.90
33837;DHT22;20140;49.356;8.812;2022-10-31T01:51:14;9.00;99.90
33837;DHT22;20140;49.356;8.812;2022-10-31T01:53:41;9.10;99.90
33837;DHT22;20140;49.356;8.812;2022-10-31T01:56:09;9.20;99.90
33837;DHT22;20140;49.356;8.812;2022-10-31T01:58:35;9.00;99.90
33837;DHT22;20140;49.356;8.812;2022-10-31T02:01:01;8.90;99.90
33837;DHT22;20140;49.356;8.812;2022-10-31T02:03:28;9.00;99.90
33837;DHT22;20140;49.356;8.812;2022-10-31T02:05:55;9.10;99.90
33837;DHT22;20140;49.356;8.812;2022-10-31T02:08:31;9.20;99.90
33837;DHT22;20140;49.356;8.812;2022-10-31T02:10:58;9.30;99.90
33837;DHT22;20140;49.356;8.812;2022-10-31T02:13:25;9.20;99.90
33837;DHT22;20140;49.356;8.812;2022-10-31T02:15:55;9.10;99.90
33837;DHT22;20140;49.356;8.812;2022-10-31T02:18:21;8.90;99.90
33837;DHT22;20140;49.356;8.812;2022-10-31T02:21:16;8.80;99.90
33837;DHT22;20140;49.356;8.812;2022-10-31T02:24:13;8.80;99.90
33837;DHT22;20140;49.356;8.812;2022-10-31T02:40:24;8.80;99.90
33837;DHT22;20140;49.356;8.812;2022-10-31T02:43:02;8.70;99.90
33837;DHT22;20140;49.356;8.812;2022-10-31T02:48:04;8.80;99.90
33837;DHT22;20140;49.356;8.812;2022-10-31T02:50:35;8.80;99.90
33837;DHT22;20140;49.356;8.812;2022-10-31T02:53:03;8.80;99.90
33837;DHT22;20140;49.356;8.812;2022-10-31T03:00:29;8.60;99.90
33837;DHT22;20140;49.356;8.812;2022-10-31T03:03:14;8.60;99.90
33837;DHT22;20140;49.356;8.812;2022-10-31T03:05:58;8.70;99.90
33837;DHT22;20140;49.356;8.812;2022-10-31T03:11:05;8.60;99.90
33837;DHT22;20140;49.356;8.812;2022-10-31T03:13:50;8.70;99.90
33837;DHT22;20140;49.356;8.812;2022-10-31T03:16:27;8.80;99.90
33837;DHT22;20140;49.356;8.812;2022-10-31T03:19:05;8.90;99.90
33837;DHT22;20140;49.356;8.812;2022-10-31T03:21:36;8.90;99.90
33837;DHT22;20140;49.356;8.812;2022-10-31T03:24:06;8.90;99.90
33837;DHT22;20140;49.356;8.812;2022-10-31T03:26:35;8.80;99.90
33837;DHT22;20140;49.356;8.812;2022-10-31T03:29:06;8.80;99.90
33837;DHT22;20140;49.356;8.812;2022-10-31T03:31:41;8.70;99.90
33837;DHT22;20140;49.356;8.812;2022-10-31T03:34:09;8.70;99.90
33837;DHT22;20140;49.356;8.812;2022-10-31T03:36:37;8.80;99.90
33837;DHT22;20140;49.356;8.812;2022-10-31T03:39:07;8.80;99.90
33837;DHT22;20140;49.356;8.812;2022-10-31T03:41:38;8.80;99.90
33837;DHT22;20140;49.356;8.812;2022-10-31T03:44:14;8.60;99.90
33837;DHT22;20140;49.356;8.812;2022-10-31T03:46:41;8.50;99.90
33837;DHT22;20140;49.356;8.812;2022-10-31T03:49:07;8.40;99.90
33837;DHT22;20140;49.356;8.812;2022-10-31T03:56:59;8.40;99.90
33837;DHT22;20140;49.356;8.812;2022-10-31T03:59:34;8.30;99.90
33837;DHT22;20140;49.356;8.812;2022-10-31T04:02:05;8.40;99.90
33837;DHT22;20140;49.356;8.812;2022-10-31T04:04:33;8.30;99.90
33837;DHT22;20140;49.356;8.812;2022-10-31T04:07:00;8.50;99.90
33837;DHT22;20140;49.356;8.812;2022-10-31T04:09:27;8.40;99.90
33837;DHT22;20140;49.356;8.812;2022-10-31T04:11:56;8.40;99.90
33837;DHT22;20140;49.356;8.812;2022-10-31T04:14:25;8.50;99.90
33837;DHT22;20140;49.356;8.812;2022-10-31T04:16:51;8.50;99.90
33837;DHT22;20140;49.356;8.812;2022-10-31T04:19:17;8.30;99.90
33837;DHT22;20140;49.356;8.812;2022-10-31T04:21:42;8.20;99.90
33837;DHT22;20140;49.356;8.812;2022-10-31T04:24:11;8.10;99.90
33837;DHT22;20140;49.356;8.812;2022-10-31T04:26:37;8.00;99.90
33837;DHT22;20140;49.356;8.812;2022-10-31T04:29:03;7.90;99.90
33837;DHT22;20140;49.356;8.812;2022-10-31T04:31:28;7.90;99.90
33837;DHT22;20140;49.356;8.812;2022-10-31T04:33:54;8.00;99.90
33837;DHT22;20140;49.356;8.812;2022-10-31T04:36:20;8.10;99.90
33837;DHT22;20140;49.356;8.812;2022-10-31T04:38:45;8.20;99.90
33837;DHT22;20140;49.356;8.812;2022-10-31T04:41:11;8.20;99.90
33837;DHT22;20140;49.356;8.812;2022-10-31T04:43:36;8.10;99.90
33837;DHT22;20140;49.356;8.812;2022-10-31T04:46:02;8.00;99.90
33837;DHT22;20140;49.356;8.812;2022-10-31T04:48:28;8.00;99.90
33837;DHT22;20140;49.356;8.812;2022-10-31T04:50:58;7.90;99.90
33837;DHT22;20140;49.356;8.812;2022-10-31T04:53:24;7.90;99.90
33837;DHT22;20140;49.356;8.812;2022-10-31T04:55:50;7.90;99.90
33837;DHT22;20140;49.356;8.812;2022-10-31T04:58:15;7.90;99.90
33837;DHT22;20140;49.356;8.812;2022-10-31T05:00:41;8.10;99.90
33837;DHT22;20140;49.356;8.812;2022-10-31T05:03:06;8.20;99.90
33837;DHT22;20140;49.356;8.812;2022-10-31T05:05:32;8.30;99.90
33837;DHT22;20140;49.356;8.812;2022-10-31T05:07:57;8.30;99.90
33837;DHT22;20140;49.356;8.812;2022-10-31T05:10:25;8.20;99.90
33837;DHT22;20140;49.356;8.812;2022-10-31T05:12:57;8.10;99.90
33837;DHT22;20140;49.356;8.812;2022-10-31T05:15:25;8.10;99.90
33837;DHT22;20140;49.356;8.812;2022-10-31T05:17:51;8.10;99.90
33837;DHT22;20140;49.356;8.812;2022-10-31T05:20:18;8.00;99.90
33837;DHT22;20140;49.356;8.812;2022-10-31T05:22:46;7.90;99.90
33837;DHT22;20140;49.356;8.812;2022-10-31T05:25:12;7.90;99.90
33837;DHT22;20140;49.356;8.812;2022-10-31T05:27:42;7.90;99.90
33837;DHT22;20140;49.356;8.812;2022-10-31T05:30:09;7.90;99.90
33837;DHT22;20140;49.356;8.812;2022-10-31T05:32:44;7.80;99.90
33837;DHT22;20140;49.356;8.812;2022-10-31T05:35:12;7.90;99.90
33837;DHT22;20140;49.356;8.812;2022-10-31T05:37:38;8.00;99.90
33837;DHT22;20140;49.356;8.812;2022-10-31T05:40:05;8.00;99.90
33837;DHT22;20140;49.356;8.812;2022-10-31T05:42:31;8.00;99.90
33837;DHT22;20140;49.356;8.812;2022-10-31T05:44:57;8.00;99.90
33837;DHT22;20140;49.356;8.812;2022-10-31T05:47:23;7.90;99.90
33837;DHT22;20140;49.356;8.812;2022-10-31T05:49:48;7.70;99.90
33837;DHT22;20140;49.356;8.812;2022-10-31T05:52:14;7.60;99.90
33837;DHT22;20140;49.356;8.812;2022-10-31T05:54:40;7.60;99.90
33837;DHT22;20140;49.356;8.812;2022-10-31T05:57:05;7.50;99.90
33837;DHT22;20140;49.356;8.812;2022-10-31T05:59:31;7.60;99.90
33837;DHT22;20140;49.356;8.812;2022-10-31T06:01:56;7.70;99.90
33837;DHT22;20140;49.356;8.812;2022-10-31T06:04:22;7.80;99.90
33837;DHT22;20140;49.356;8.812;2022-10-31T06:06:47;7.70;99.90
33837;DHT22;20140;49.356;8.812;2022-10-31T06:09:13;7.60;99.90
33837;DHT22;20140;49.356;8.812;2022-10-31T06:11:38;7.60;99.90
33837;DHT22;20140;49.356;8.812;2022-10-31T06:14:04;7.60;99.90
33837;DHT22;20140;49.356;8.812;2022-10-31T06:16:30;7.50;99.90
33837;DHT22;20140;49.356;8.812;2022-10-31T06:18:55;7.60;99.90
33837;DHT22;20140;49.356;8.812;2022-10-31T06:21:22;7.60;99.90
33837;DHT22;20140;49.356;8.812;2022-10-31T06:23:48;7.70;99.90
33837;DHT22;20140;49.356;8.812;2022-10-31T06:26:13;7.70;99.90
33837;DHT22;20140;49.356;8.812;2022-10-31T06:28:39;7.80;99.90
33837;DHT22;20140;49.356;8.812;2022-10-31T06:31:05;7.80;99.90
33837;DHT22;20140;49.356;8.812;2022-10-31T06:33:30;7.90;99.90
33837;DHT22;20140;49.356;8.812;2022-10-31T06:35:56;7.80;99.90
33837;DHT22;20140;49.356;8.812;2022-10-31T06:38:22;7.80;99.90
33837;DHT22;20140;49.356;8.812;2022-10-31T06:40:47;7.80;99.90
33837;DHT22;20140;49.356;8.812;2022-10-31T06:43:13;7.80;99.90
33837;DHT22;20140;49.356;8.812;2022-10-31T06:45:40;7.70;99.90
33837;DHT22;20140;49.356;8.812;2022-10-31T06:48:06;7.50;99.90
33837;DHT22;20140;49.356;8.812;2022-10-31T06:50:31;7.60;99.90
33837;DHT22;20140;49.356;8.812;2022-10-31T06:52:58;7.50;99.90
33837;DHT22;20140;49.356;8.812;2022-10-31T06:55:24;7.50;99.90
33837;DHT22;20140;49.356;8.812;2022-10-31T07:00:16;7.50;99.90
33837;DHT22;20140;49.356;8.812;2022-10-31T07:02:42;7.60;99.90
33837;DHT22;20140;49.356;8.812;2022-10-31T07:05:08;7.90;99.90
33837;DHT22;20140;49.356;8.812;2022-10-31T07:07:33;7.90;99.90
33837;DHT22;20140;49.356;8.812;2022-10-31T07:09:59;7.70;99.90
33837;DHT22;20140;49.356;8.812;2022-10-31T07:12:24;7.70;99.90
33837;DHT22;20140;49.356;8.812;2022-10-31T07:14:50;7.80;99.90
33837;DHT22;20140;49.356;8.812;2022-10-31T07:17:15;7.80;99.90
33837;DHT22;20140;49.356;8.812;2022-10-31T07:19:41;7.90;99.90
33837;DHT22;20140;49.356;8.812;2022-10-31T07:22:06;7.90;99.90
33837;DHT22;20140;49.356;8.812;2022-10-31T07:24:32;8.10;99.90
33837;DHT22;20140;49.356;8.812;2022-10-31T07:26:57;8.10;99.90
33837;DHT22;20140;49.356;8.812;2022-10-31T07:29:23;8.20;99.90
33837;DHT22;20140;49.356;8.812;2022-10-31T07:31:50;8.40;99.90
33837;DHT22;20140;49.356;8.812;2022-10-31T07:34:15;8.60;99.90
33837;DHT22;20140;49.356;8.812;2022-10-31T07:36:41;8.80;99.90
33837;DHT22;20140;49.356;8.812;2022-10-31T07:39:06;9.00;99.90
33837;DHT22;20140;49.356;8.812;2022-10-31T07:41:32;9.20;99.90
33837;DHT22;20140;49.356;8.812;2022-10-31T07:43:58;9.30;99.90
33837;DHT22;20140;49.356;8.812;2022-10-31T07:46:23;9.40;99.90
33837;DHT22;20140;49.356;8.812;2022-10-31T07:48:49;9.30;99.90
33837;DHT22;20140;49.356;8.812;2022-10-31T07:51:14;9.20;99.90
33837;DHT22;20140;49.356;8.812;2022-10-31T07:53:40;9.20;99.90
33837;DHT22;20140;49.356;8.812;2022-10-31T07:56:05;9.50;99.90
33837;DHT22;20140;49.356;8.812;2022-10-31T07:58:31;9.60;99.90
33837;DHT22;20140;49.356;8.812;2022-10-31T08:00:57;9.60;99.90
33837;DHT22;20140;49.356;8.812;2022-10-31T08:03:23;9.70;99.90
33837;DHT22;20140;49.356;8.812;2022-10-31T08:05:48;9.90;99.90
33837;DHT22;20140;49.356;8.812;2022-10-31T08:08:14;10.00;99.90
33837;DHT22;20140;49.356;8.812;2022-10-31T08:10:40;10.10;99.90
33837;DHT22;20140;49.356;8.812;2022-10-31T08:13:07;10.20;99.90
33837;DHT22;20140;49.356;8.812;2022-10-31T08:15:34;10.30;99.90
33837;DHT22;20140;49.356;8.812;2022-10-31T08:18:02;10.40;99.90
33837;DHT22;20140;49.356;8.812;2022-10-31T08:20:28;10.50;99.90
33837;DHT22;20140;49.356;8.812;2022-10-31T08:22:59;10.70;99.90
33837;DHT22;20140;49.356;8.812;2022-10-31T08:25:27;10.70;99.90
33837;DHT22;20140;49.356;8.812;2022-10-31T08:27:54;10.90;99.90
33837;DHT22;20140;49.356;8.812;2022-10-31T08:30:21;10.90;99.90
33837;DHT22;20140;49.356;8.812;2022-10-31T08:32:47;11.00;99.90
33837;DHT22;20140;49.356;8.812;2022-10-31T08:35:12;11.10;99.90
33837;DHT22;20140;49.356;8.812;2022-10-31T08:37:38;11.20;99.90
33837;DHT22;20140;49.356;8.812;2022-10-31T08:40:05;11.30;99.90
33837;DHT22;20140;49.356;8.812;2022-10-31T08:42:32;11.30;99.90
33837;DHT22;20140;49.356;8.812;2022-10-31T08:44:57;11.40;99.90
33837;DHT22;20140;49.356;8.812;2022-10-31T08:47:23;11.50;99.90
33837;DHT22;20140;49.356;8.812;2022-10-31T08:49:48;11.40;99.90
33837;DHT22;20140;49.356;8.812;2022-10-31T08:52:14;11.60;99.90
33837;DHT22;20140;49.356;8.812;2022-10-31T08:54:40;11.80;99.90
33837;DHT22;20140;49.356;8.812;2022-10-31T08:57:05;11.90;99.90
33837;DHT22;20140;49.356;8.812;2022-10-31T08:59:31;12.10;99.90
33837;DHT22;20140;49.356;8.812;2022-10-31T09:01:56;12.20;99.90
33837;DHT22;20140;49.356;8.812;2022-10-31T09:04:22;12.20;99.90
33837;DHT22;20140;49.356;8.812;2022-10-31T09:06:47;12.20;99.90
33837;DHT22;20140;49.356;8.812;2022-10-31T09:09:13;12.10;99.90
33837;DHT22;20140;49.356;8.812;2022-10-31T09:11:38;12.00;99.90
33837;DHT22;20140;49.356;8.812;2022-10-31T09:14:04;12.20;99.90
33837;DHT22;20140;49.356;8.812;2022-10-31T09:16:30;12.30;99.90
33837;DHT22;20140;49.356;8.812;2022-10-31T09:18:55;12.40;99.90
33837;DHT22;20140;49.356;8.812;2022-10-31T09:21:21;12.60;99.90
33837;DHT22;20140;49.356;8.812;2022-10-31T09:23:46;12.80;99.90
33837;DHT22;20140;49.356;8.812;2022-10-31T09:26:12;12.80;99.90
33837;DHT22;20140;49.356;8.812;2022-10-31T09:28:37;12.90;99.90
33837;DHT22;20140;49.356;8.812;2022-10-31T09:31:03;13.10;99.90
33837;DHT22;20140;49.356;8.812;2022-10-31T09:33:28;13.20;99.90
33837;DHT22;20140;49.356;8.812;2022-10-31T09:35:54;13.30;99.90
33837;DHT22;20140;49.356;8.812;2022-10-31T09:38:20;13.50;99.90
33837;DHT22;20140;49.356;8.812;2022-10-31T09:41:03;13.60;99.90
33837;DHT22;20140;49.356;8.812;2022-10-31T09:43:42;13.60;99.90
33837;DHT22;20140;49.356;8.812;2022-10-31T09:51:50;13.80;99.90
33837;DHT22;20140;49.356;8.812;2022-10-31T09:54:25;13.90;99.90
33837;DHT22;20140;49.356;8.812;2022-10-31T09:56:52;14.10;99.90
33837;DHT22;20140;49.356;8.812;2022-10-31T09:59:39;14.00;99.90
33837;DHT22;20140;49.356;8.812;2022-10-31T10:02:17;13.80;99.90
33837;DHT22;20140;49.356;8.812;2022-10-31T10:05:00;13.90;99.90
33837;DHT22;20140;49.356;8.812;2022-10-31T10:10:14;14.20;99.90
33837;DHT22;20140;49.356;8.812;2022-10-31T10:26:01;14.70;99.90
33837;DHT22;20140;49.356;8.812;2022-10-31T10:28:30;14.70;99.90
33837;DHT22;20140;49.356;8.812;2022-10-31T10:31:07;14.70;99.90
33837;DHT22;20140;49.356;8.812;2022-10-31T10:33:37;14.80;99.90
33837;DHT22;20140;49.356;8.812;2022-10-31T10:36:12;14.70;99.90
33837;DHT22;20140;49.356;8.812;2022-10-31T10:38:54;14.90;99.90
33837;DHT22;20140;49.356;8.812;2022-10-31T10:41:24;14.90;99.90
33837;DHT22;20140;49.356;8.812;2022-10-31T10:43:50;15.00;99.90
33837;DHT22;20140;49.356;8.812;2022-10-31T10:46:39;15.00;99.90
33837;DHT22;20140;49.356;8.812;2022-10-31T10:52:14;15.10;99.90
33837;DHT22;20140;49.356;8.812;2022-10-31T10:57:47;15.40;99.90
33837;DHT22;20140;49.356;8.812;2022-10-31T11:00:23;15.50;99.90
33837;DHT22;20140;49.356;8.812;2022-10-31T11:02:49;15.70;99.90
33837;DHT22;20140;49.356;8.812;2022-10-31T11:08:08;15.70;99.90
33837;DHT22;20140;49.356;8.812;2022-10-31T11:10:34;15.80;99.90
33837;DHT22;20140;49.356;8.812;2022-10-31T11:13:20;15.90;99.90
33837;DHT22;20140;49.356;8.812;2022-10-31T11:16:09;16.00;99.90
33837;DHT22;20140;49.356;8.812;2022-10-31T11:18:42;16.20;99.90
33837;DHT22;20140;49.356;8.812;2022-10-31T11:21:21;16.40;99.90
33837;DHT22;20140;49.356;8.812;2022-10-31T11:23:46;16.40;99.90
33837;DHT22;20140;49.356;8.812;2022-10-31T11:26:19;16.50;99.90
33837;DHT22;20140;49.356;8.812;2022-10-31T11:28:59;16.30;99.90
33837;DHT22;20140;49.356;8.812;2022-10-31T11:31:25;16.20;99.90
33837;DHT22;20140;49.356;8.812;2022-10-31T11:33:59;16.30;99.90
33837;DHT22;20140;49.356;8.812;2022-10-31T11:36:27;16.40;99.90
33837;DHT22;20140;49.356;8.812;2022-10-31T11:38:55;16.40;99.90
33837;DHT22;20140;49.356;8.812;2022-10-31T11:41:33;16.60;99.90
33837;DHT22;20140;49.356;8.812;2022-10-31T11:44:03;16.70;99.90
33837;DHT22;20140;49.356;8.812;2022-10-31T11:46:46;16.90;99.90
33837;DHT22;20140;49.356;8.812;2022-10-31T11:49:19;17.20;99.90
33837;DHT22;20140;49.356;8.812;2022-10-31T11:51:51;17.00;99.90
33837;DHT22;20140;49.356;8.812;2022-10-31T11:54:25;16.90;99.90
33837;DHT22;20140;49.356;8.812;2022-10-31T11:56:50;16.80;99.90
33837;DHT22;20140;49.356;8.812;2022-10-31T11:59:28;16.90;99.90
33837;DHT22;20140;49.356;8.812;2022-10-31T12:01:55;17.00;99.90
33837;DHT22;20140;49.356;8.812;2022-10-31T12:04:41;17.00;99.90
33837;DHT22;20140;49.356;8.812;2022-10-31T12:07:09;17.10;99.90
33837;DHT22;20140;49.356;8.812;2022-10-31T12:09:36;17.20;99.90
33837;DHT22;20140;49.356;8.812;2022-10-31T12:12:27;17.40;99.90
33837;DHT22;20140;49.356;8.812;2022-10-31T12:15:19;17.50;99.90
33837;DHT22;20140;49.356;8.812;2022-10-31T12:18:03;17.60;99.90
33837;DHT22;20140;49.356;8.812;2022-10-31T12:39:44;17.90;99.90
33837;DHT22;20140;49.356;8.812;2022-10-31T12:45:33;17.80;99.90
33837;DHT22;20140;49.356;8.812;2022-10-31T12:50:50;17.80;99.90
33837;DHT22;20140;49.356;8.812;2022-10-31T12:58:37;18.00;99.90
33837;DHT22;20140;49.356;8.812;2022-10-31T13:01:28;18.10;99.90
33837;DHT22;20140;49.356;8.812;2022-10-31T13:04:16;18.00;99.90
33837;DHT22;20140;49.356;8.812;2022-10-31T13:06:49;17.90;99.90
33837;DHT22;20140;49.356;8.812;2022-10-31T13:09:23;17.90;99.90
33837;DHT22;20140;49.356;8.812;2022-10-31T13:12:02;18.20;99.90
33837;DHT22;20140;49.356;8.812;2022-10-31T13:14:54;18.30;99.90
33837;DHT22;20140;49.356;8.812;2022-10-31T13:17:30;18.10;99.90
33837;DHT22;20140;49.356;8.812;2022-10-31T13:22:44;17.80;99.90
33837;DHT22;20140;49.356;8.812;2022-10-31T13:25:16;18.00;99.90
33837;DHT22;20140;49.356;8.812;2022-10-31T13:27:58;18.00;99.90
33837;DHT22;20140;49.356;8.812;2022-10-31T13:30:28;18.00;99.90
33837;DHT22;20140;49.356;8.812;2022-10-31T13:35:58;18.10;99.90
33837;DHT22;20140;49.356;8.812;2022-10-31T13:38:38;18.20;99.90
33837;DHT22;20140;49.356;8.812;2022-10-31T13:41:17;18.20;99.90
33837;DHT22;20140;49.356;8.812;2022-10-31T13:44:03;18.30;99.90
33837;DHT22;20140;49.356;8.812;2022-10-31T13:46:35;19.20;99.90
33837;DHT22;20140;49.356;8.812;2022-10-31T13:49:01;20.60;99.90
33837;DHT22;20140;49.356;8.812;2022-10-31T13:51:29;20.40;99.90
33837;DHT22;20140;49.356;8.812;2022-10-31T13:56:29;20.10;99.90
33837;DHT22;20140;49.356;8.812;2022-10-31T13:59:00;19.90;99.90
33837;DHT22;20140;49.356;8.812;2022-10-31T14:01:27;20.40;99.90
33837;DHT22;20140;49.356;8.812;2022-10-31T14:04:01;20.60;99.90
33837;DHT22;20140;49.356;8.812;2022-10-31T14:06:43;21.80;99.90
33837;DHT22;20140;49.356;8.812;2022-10-31T14:09:49;22.30;99.90
33837;DHT22;20140;49.356;8.812;2022-10-31T14:12:26;23.70;99.90
33837;DHT22;20140;49.356;8.812;2022-10-31T14:14:55;23.20;99.90
33837;DHT22;20140;49.356;8.812;2022-10-31T14:17:24;22.70;99.90
33837;DHT22;20140;49.356;8.812;2022-10-31T14:22:46;22.60;99.90
33837;DHT22;20140;49.356;8.812;2022-10-31T14:25:29;22.90;99.90
33837;DHT22;20140;49.356;8.812;2022-10-31T14:27:55;24.00;99.90
33837;DHT22;20140;49.356;8.812;2022-10-31T14:30:24;24.60;99.90
33837;DHT22;20140;49.356;8.812;2022-10-31T14:32:53;25.10;99.90
33837;DHT22;20140;49.356;8.812;2022-10-31T14:35:20;25.10;99.90
33837;DHT22;20140;49.356;8.812;2022-10-31T14:40:32;24.60;99.90
33837;DHT22;20140;49.356;8.812;2022-10-31T14:43:28;24.30;99.90
33837;DHT22;20140;49.356;8.812;2022-10-31T14:46:01;23.60;99.90
33837;DHT22;20140;49.356;8.812;2022-10-31T14:51:21;21.40;99.90
33837;DHT22;20140;49.356;8.812;2022-10-31T14:53:55;20.80;99.90
33837;DHT22;20140;49.356;8.812;2022-10-31T14:56:33;20.30;99.90
33837;DHT22;20140;49.356;8.812;2022-10-31T14:59:03;19.90;99.90
33837;DHT22;20140;49.356;8.812;2022-10-31T15:01:32;19.70;99.90
33837;DHT22;20140;49.356;8.812;2022-10-31T15:04:07;19.40;99.90
33837;DHT22;20140;49.356;8.812;2022-10-31T15:06:46;19.20;99.90
33837;DHT22;20140;49.356;8.812;2022-10-31T15:09:27;18.90;99.90
33837;DHT22;20140;49.356;8.812;2022-10-31T15:11:53;18.80;99.90
33837;DHT22;20140;49.356;8.812;2022-10-31T15:14:32;18.60;99.90
33837;DHT22;20140;49.356;8.812;2022-10-31T15:17:01;18.40;99.90
33837;DHT22;20140;49.356;8.812;2022-10-31T15:19:29;18.30;99.90
33837;DHT22;20140;49.356;8.812;2022-10-31T15:21:57;18.20;99.90
33837;DHT22;20140;49.356;8.812;2022-10-31T15:24:41;17.90;99.90
33837;DHT22;20140;49.356;8.812;2022-10-31T15:27:13;17.80;99.90
33837;DHT22;20140;49.356;8.812;2022-10-31T15:29:54;17.70;99.90
33837;DHT22;20140;49.356;8.812;2022-10-31T15:32:22;17.70;99.90
33837;DHT22;20140;49.356;8.812;2022-10-31T15:34:49;17.80;99.90
33837;DHT22;20140;49.356;8.812;2022-10-31T15:37:18;17.70;99.90
33837;DHT22;20140;49.356;8.812;2022-10-31T15:39:45;17.50;99.90
33837;DHT22;20140;49.356;8.812;2022-10-31T15:42:28;17.30;99.90
33837;DHT22;20140;49.356;8.812;2022-10-31T15:45:05;17.40;99.90
33837;DHT22;20140;49.356;8.812;2022-10-31T15:48:15;17.30;99.90
33837;DHT22;20140;49.356;8.812;2022-10-31T15:50:55;17.20;99.90
33837;DHT22;20140;49.356;8.812;2022-10-31T15:53:26;17.10;99.90
33837;DHT22;20140;49.356;8.812;2022-10-31T15:55:57;16.90;99.90
33837;DHT22;20140;49.356;8.812;2022-10-31T15:58:24;16.80;99.90
33837;DHT22;20140;49.356;8.812;2022-10-31T16:00:59;16.80;99.90
33837;DHT22;20140;49.356;8.812;2022-10-31T16:03:30;16.80;99.90
33837;DHT22;20140;49.356;8.812;2022-10-31T16:05:59;16.60;99.90
33837;DHT22;20140;49.356;8.812;2022-10-31T16:13:33;16.20;99.90
33837;DHT22;20140;49.356;8.812;2022-10-31T16:16:03;16.20;99.90
33837;DHT22;20140;49.356;8.812;2022-10-31T16:18:35;16.20;99.90
33837;DHT22;20140;49.356;8.812;2022-10-31T16:21:02;16.20;99.90
33837;DHT22;20140;49.356;8.812;2022-10-31T16:23:28;16.10;99.90
33837;DHT22;20140;49.356;8.812;2022-10-31T16:25:54;16.10;99.90
33837;DHT22;20140;49.356;8.812;2022-10-31T16:28:22;16.10;99.90
33837;DHT22;20140;49.356;8.812;2022-10-31T16:30:51;16.00;99.90
33837;DHT22;20140;49.356;8.812;2022-10-31T16:33:33;16.00;99.90
33837;DHT22;20140;49.356;8.812;2022-10-31T16:38:55;15.90;99.90
33837;DHT22;20140;49.356;8.812;2022-10-31T16:41:21;15.90;99.90
33837;DHT22;20140;49.356;8.812;2022-10-31T16:43:53;15.90;99.90
33837;DHT22;20140;49.356;8.812;2022-10-31T16:46:39;15.80;99.90
33837;DHT22;20140;49.356;8.812;2022-10-31T16:49:07;15.70;99.90
33837;DHT22;20140;49.356;8.812;2022-10-31T16:51:32;15.70;99.90
33837;DHT22;20140;49.356;8.812;2022-10-31T16:53:58;15.60;99.90
33837;DHT22;20140;49.356;8.812;2022-10-31T16:56:28;15.60;99.90
33837;DHT22;20140;49.356;8.812;2022-10-31T16:58:55;15.40;99.90
33837;DHT22;20140;49.356;8.812;2022-10-31T17:01:21;15.40;99.90
33837;DHT22;20140;49.356;8.812;2022-10-31T17:03:46;15.30;99.90
33837;DHT22;20140;49.356;8.812;2022-10-31T17:06:13;15.30;99.90
33837;DHT22;20140;49.356;8.812;2022-10-31T17:08:39;15.30;99.90
33837;DHT22;20140;49.356;8.812;2022-10-31T17:11:05;15.20;99.90
33837;DHT22;20140;49.356;8.812;2022-10-31T17:13:31;15.30;99.90
33837;DHT22;20140;49.356;8.812;2022-10-31T17:16:00;15.30;99.90
33837;DHT22;20140;49.356;8.812;2022-10-31T17:18:26;15.30;99.90
33837;DHT22;20140;49.356;8.812;2022-10-31T17:20:56;15.30;99.90
33837;DHT22;20140;49.356;8.812;2022-10-31T17:23:23;15.10;99.90
33837;DHT22;20140;49.356;8.812;2022-10-31T17:25:49;15.00;99.90
33837;DHT22;20140;49.356;8.812;2022-10-31T17:28:14;15.00;99.90
33837;DHT22;20140;49.356;8.812;2022-10-31T17:30:41;15.00;99.90
33837;DHT22;20140;49.356;8.812;2022-10-31T17:33:14;15.00;99.90
33837;DHT22;20140;49.356;8.812;2022-10-31T17:35:41;15.10;99.90
33837;DHT22;20140;49.356;8.812;2022-10-31T17:38:07;15.10;99.90
33837;DHT22;20140;49.356;8.812;2022-10-31T17:40:33;15.10;99.90
33837;DHT22;20140;49.356;8.812;2022-10-31T17:42:58;15.00;99.90
33837;DHT22;20140;49.356;8.812;2022-10-31T17:45:25;14.90;99.90
33837;DHT22;20140;49.356;8.812;2022-10-31T17:47:52;14.80;99.90
33837;DHT22;20140;49.356;8.812;2022-10-31T17:50:20;14.60;99.90
33837;DHT22;20140;49.356;8.812;2022-10-31T17:52:46;14.60;99.90